sensor_id;sensor_type;location;lat;lon;timestamp;P1;durP1;ratioP1;P2;durP2;ratioP2
13228;SDS011;6680;53.220;10.402;2023-04-25T00:01:52;5.77;;;4.83;;
13228;SDS011;6680;53.220;10.402;2023-04-25T00:04:19;9.43;;;4.43;;
13228;SDS011;6680;53.220;10.402;2023-04-25T00:06:47;4.87;;;3.87;;
13228;SDS011;6680;53.220;10.402;2023-04-25T00:09:14;6.13;;;4.30;;
13228;SDS011;6680;53.220;10.402;2023-04-25T00:11:41;6.30;;;4.43;;
13228;SDS011;6680;53.220;10.402;2023-04-25T00:14:08;8.07;;;4.20;;
13228;SDS011;6680;53.220;10.402;2023-04-25T00:16:35;4.83;;;4.33;;
13228;SDS011;6680;53.220;10.402;2023-04-25T00:19:02;4.33;;;3.80;;
13228;SDS011;6680;53.220;10.402;2023-04-25T00:21:29;5.80;;;3.90;;
13228;SDS011;6680;53.220;10.402;2023-04-25T00:23:59;6.67;;;3.57;;
13228;SDS011;6680;53.220;10.402;2023-04-25T00:26:26;3.87;;;3.50;;
13228;SDS011;6680;53.220;10.402;2023-04-25T00:28:53;6.90;;;4.23;;
13228;SDS011;6680;53.220;10.402;2023-04-25T00:31:20;6.77;;;3.97;;
13228;SDS011;6680;53.220;10.402;2023-04-25T00:33:47;8.70;;;4.03;;
13228;SDS011;6680;53.220;10.402;2023-04-25T00:36:14;4.10;;;3.70;;
13228;SDS011;6680;53.220;10.402;2023-04-25T00:38:40;6.00;;;4.17;;
13228;SDS011;6680;53.220;10.402;2023-04-25T00:41:08;5.90;;;4.10;;
13228;SDS011;6680;53.220;10.402;2023-04-25T00:43:36;5.87;;;3.80;;
13228;SDS011;6680;53.220;10.402;2023-04-25T00:46:03;4.77;;;3.77;;
13228;SDS011;6680;53.220;10.402;2023-04-25T00:48:30;4.33;;;3.90;;
13228;SDS011;6680;53.220;10.402;2023-04-25T00:50:57;5.73;;;3.87;;
13228;SDS011;6680;53.220;10.402;2023-04-25T00:53:26;5.37;;;4.50;;
13228;SDS011;6680;53.220;10.402;2023-04-25T00:55:53;5.33;;;4.23;;
13228;SDS011;6680;53.220;10.402;2023-04-25T00:58:22;6.87;;;4.30;;
13228;SDS011;6680;53.220;10.402;2023-04-25T01:00:49;8.23;;;5.17;;
13228;SDS011;6680;53.220;10.402;2023-04-25T01:03:18;5.93;;;4.93;;
13228;SDS011;6680;53.220;10.402;2023-04-25T01:05:45;11.20;;;5.03;;
13228;SDS011;6680;53.220;10.402;2023-04-25T01:08:12;7.37;;;5.20;;
13228;SDS011;6680;53.220;10.402;2023-04-25T01:10:40;5.23;;;4.67;;
13228;SDS011;6680;53.220;10.402;2023-04-25T01:13:06;6.83;;;4.93;;
13228;SDS011;6680;53.220;10.402;2023-04-25T01:15:35;6.60;;;5.10;;
13228;SDS011;6680;53.220;10.402;2023-04-25T01:18:02;6.80;;;4.60;;
13228;SDS011;6680;53.220;10.402;2023-04-25T01:20:30;5.80;;;4.37;;
13228;SDS011;6680;53.220;10.402;2023-04-25T01:23:00;7.60;;;4.70;;
13228;SDS011;6680;53.220;10.402;2023-04-25T01:25:28;6.73;;;4.83;;
13228;SDS011;6680;53.220;10.402;2023-04-25T01:27:55;4.30;;;3.50;;
13228;SDS011;6680;53.220;10.402;2023-04-25T01:30:23;4.17;;;3.50;;
13228;SDS011;6680;53.220;10.402;2023-04-25T01:32:51;5.17;;;3.60;;
13228;SDS011;6680;53.220;10.402;2023-04-25T01:35:20;6.00;;;3.23;;
13228;SDS011;6680;53.220;10.402;2023-04-25T01:37:49;3.53;;;3.10;;
13228;SDS011;6680;53.220;10.402;2023-04-25T01:40:17;6.97;;;3.60;;
13228;SDS011;6680;53.220;10.402;2023-04-25T01:42:44;7.20;;;2.77;;
13228;SDS011;6680;53.220;10.402;2023-04-25T01:45:11;6.73;;;2.90;;
13228;SDS011;6680;53.220;10.402;2023-04-25T01:47:38;10.00;;;3.87;;
13228;SDS011;6680;53.220;10.402;2023-04-25T01:50:08;4.47;;;3.47;;
13228;SDS011;6680;53.220;10.402;2023-04-25T01:52:36;13.13;;;3.70;;
13228;SDS011;6680;53.220;10.402;2023-04-25T01:55:03;9.07;;;3.80;;
13228;SDS011;6680;53.220;10.402;2023-04-25T01:57:32;12.97;;;4.30;;
13228;SDS011;6680;53.220;10.402;2023-04-25T01:59:59;8.10;;;3.80;;
13228;SDS011;6680;53.220;10.402;2023-04-25T02:02:27;10.27;;;4.17;;
13228;SDS011;6680;53.220;10.402;2023-04-25T02:04:54;11.27;;;3.37;;
13228;SDS011;6680;53.220;10.402;2023-04-25T02:07:21;15.50;;;3.13;;
13228;SDS011;6680;53.220;10.402;2023-04-25T02:09:48;14.70;;;4.33;;
13228;SDS011;6680;53.220;10.402;2023-04-25T02:12:15;8.17;;;3.60;;
13228;SDS011;6680;53.220;10.402;2023-04-25T02:14:43;12.53;;;4.07;;
13228;SDS011;6680;53.220;10.402;2023-04-25T02:17:10;10.90;;;3.50;;
13228;SDS011;6680;53.220;10.402;2023-04-25T02:19:37;6.47;;;3.03;;
13228;SDS011;6680;53.220;10.402;2023-04-25T02:22:04;7.63;;;3.50;;
13228;SDS011;6680;53.220;10.402;2023-04-25T02:24:31;8.20;;;3.93;;
13228;SDS011;6680;53.220;10.402;2023-04-25T02:26:58;10.50;;;3.33;;
13228;SDS011;6680;53.220;10.402;2023-04-25T02:29:25;8.93;;;3.10;;
13228;SDS011;6680;53.220;10.402;2023-04-25T02:31:53;7.83;;;2.83;;
13228;SDS011;6680;53.220;10.402;2023-04-25T02:34:20;8.87;;;3.60;;
13228;SDS011;6680;53.220;10.402;2023-04-25T02:36:47;9.60;;;4.07;;
13228;SDS011;6680;53.220;10.402;2023-04-25T02:39:15;14.30;;;3.53;;
13228;SDS011;6680;53.220;10.402;2023-04-25T02:41:42;6.17;;;3.20;;
13228;SDS011;6680;53.220;10.402;2023-04-25T02:44:09;11.80;;;4.17;;
13228;SDS011;6680;53.220;10.402;2023-04-25T02:46:36;11.70;;;3.40;;
13228;SDS011;6680;53.220;10.402;2023-04-25T02:49:04;6.70;;;3.33;;
13228;SDS011;6680;53.220;10.402;2023-04-25T02:51:31;5.43;;;3.43;;
13228;SDS011;6680;53.220;10.402;2023-04-25T02:53:58;6.07;;;3.17;;
13228;SDS011;6680;53.220;10.402;2023-04-25T02:56:25;11.37;;;3.57;;
13228;SDS011;6680;53.220;10.402;2023-04-25T02:58:52;10.03;;;3.53;;
13228;SDS011;6680;53.220;10.402;2023-04-25T03:01:19;12.60;;;4.07;;
13228;SDS011;6680;53.220;10.402;2023-04-25T03:03:45;11.83;;;3.60;;
13228;SDS011;6680;53.220;10.402;2023-04-25T03:06:14;12.20;;;4.00;;
13228;SDS011;6680;53.220;10.402;2023-04-25T03:08:40;20.40;;;4.20;;
13228;SDS011;6680;53.220;10.402;2023-04-25T03:11:07;10.63;;;4.07;;
13228;SDS011;6680;53.220;10.402;2023-04-25T03:13:34;11.43;;;3.60;;
13228;SDS011;6680;53.220;10.402;2023-04-25T03:16:01;15.73;;;3.50;;
13228;SDS011;6680;53.220;10.402;2023-04-25T03:18:28;8.20;;;3.10;;
13228;SDS011;6680;53.220;10.402;2023-04-25T03:20:54;8.17;;;3.73;;
13228;SDS011;6680;53.220;10.402;2023-04-25T03:23:22;9.87;;;3.97;;
13228;SDS011;6680;53.220;10.402;2023-04-25T03:25:49;26.17;;;4.67;;
13228;SDS011;6680;53.220;10.402;2023-04-25T03:28:16;12.37;;;3.30;;
13228;SDS011;6680;53.220;10.402;2023-04-25T03:30:43;8.27;;;3.30;;
13228;SDS011;6680;53.220;10.402;2023-04-25T03:33:09;22.47;;;3.70;;
13228;SDS011;6680;53.220;10.402;2023-04-25T03:35:36;11.07;;;3.20;;
13228;SDS011;6680;53.220;10.402;2023-04-25T03:38:03;8.37;;;4.10;;
13228;SDS011;6680;53.220;10.402;2023-04-25T03:40:31;19.70;;;4.30;;
13228;SDS011;6680;53.220;10.402;2023-04-25T03:42:58;9.63;;;3.37;;
13228;SDS011;6680;53.220;10.402;2023-04-25T03:45:24;5.93;;;3.30;;
13228;SDS011;6680;53.220;10.402;2023-04-25T03:47:51;15.83;;;3.90;;
13228;SDS011;6680;53.220;10.402;2023-04-25T03:50:18;12.03;;;3.50;;
13228;SDS011;6680;53.220;10.402;2023-04-25T03:52:44;10.93;;;4.00;;
13228;SDS011;6680;53.220;10.402;2023-04-25T03:55:11;14.53;;;3.70;;
13228;SDS011;6680;53.220;10.402;2023-04-25T03:57:39;14.50;;;3.53;;
13228;SDS011;6680;53.220;10.402;2023-04-25T04:00:06;12.30;;;4.47;;
13228;SDS011;6680;53.220;10.402;2023-04-25T04:02:34;11.40;;;3.37;;
13228;SDS011;6680;53.220;10.402;2023-04-25T04:05:02;13.47;;;3.60;;
13228;SDS011;6680;53.220;10.402;2023-04-25T04:07:29;10.97;;;3.73;;
13228;SDS011;6680;53.220;10.402;2023-04-25T04:09:57;16.43;;;4.03;;
13228;SDS011;6680;53.220;10.402;2023-04-25T04:12:24;11.67;;;3.93;;
13228;SDS011;6680;53.220;10.402;2023-04-25T04:14:52;8.03;;;3.63;;
13228;SDS011;6680;53.220;10.402;2023-04-25T04:17:19;8.50;;;3.40;;
13228;SDS011;6680;53.220;10.402;2023-04-25T04:19:46;9.50;;;4.23;;
13228;SDS011;6680;53.220;10.402;2023-04-25T04:22:12;12.90;;;3.80;;
13228;SDS011;6680;53.220;10.402;2023-04-25T04:24:39;8.13;;;3.33;;
13228;SDS011;6680;53.220;10.402;2023-04-25T04:27:08;9.70;;;4.43;;
13228;SDS011;6680;53.220;10.402;2023-04-25T04:29:37;18.77;;;4.83;;
13228;SDS011;6680;53.220;10.402;2023-04-25T04:32:05;12.67;;;3.53;;
13228;SDS011;6680;53.220;10.402;2023-04-25T04:34:33;12.47;;;5.73;;
13228;SDS011;6680;53.220;10.402;2023-04-25T04:37:00;13.03;;;3.93;;
13228;SDS011;6680;53.220;10.402;2023-04-25T04:39:27;7.83;;;2.97;;
13228;SDS011;6680;53.220;10.402;2023-04-25T04:41:54;9.83;;;3.23;;
13228;SDS011;6680;53.220;10.402;2023-04-25T04:44:20;8.33;;;3.17;;
13228;SDS011;6680;53.220;10.402;2023-04-25T04:46:47;11.17;;;3.50;;
13228;SDS011;6680;53.220;10.402;2023-04-25T04:49:15;11.43;;;4.30;;
13228;SDS011;6680;53.220;10.402;2023-04-25T04:51:42;11.37;;;3.50;;
13228;SDS011;6680;53.220;10.402;2023-04-25T04:54:10;13.43;;;3.60;;
13228;SDS011;6680;53.220;10.402;2023-04-25T04:56:37;12.87;;;4.10;;
13228;SDS011;6680;53.220;10.402;2023-04-25T04:59:04;12.10;;;3.47;;
13228;SDS011;6680;53.220;10.402;2023-04-25T05:01:30;11.60;;;3.43;;
13228;SDS011;6680;53.220;10.402;2023-04-25T05:03:57;6.40;;;3.70;;
13228;SDS011;6680;53.220;10.402;2023-04-25T05:06:26;8.13;;;3.10;;
13228;SDS011;6680;53.220;10.402;2023-04-25T05:08:54;10.90;;;2.97;;
13228;SDS011;6680;53.220;10.402;2023-04-25T05:11:21;9.40;;;3.50;;
13228;SDS011;6680;53.220;10.402;2023-04-25T05:13:48;13.13;;;3.47;;
13228;SDS011;6680;53.220;10.402;2023-04-25T05:16:15;14.70;;;3.23;;
13228;SDS011;6680;53.220;10.402;2023-04-25T05:18:42;12.97;;;3.30;;
13228;SDS011;6680;53.220;10.402;2023-04-25T05:21:09;10.07;;;3.17;;
13228;SDS011;6680;53.220;10.402;2023-04-25T05:23:37;5.73;;;2.87;;
13228;SDS011;6680;53.220;10.402;2023-04-25T05:26:04;10.80;;;4.10;;
13228;SDS011;6680;53.220;10.402;2023-04-25T05:28:38;12.87;;;3.67;;
13228;SDS011;6680;53.220;10.402;2023-04-25T05:31:05;6.30;;;2.40;;
13228;SDS011;6680;53.220;10.402;2023-04-25T05:33:32;4.17;;;2.37;;
13228;SDS011;6680;53.220;10.402;2023-04-25T05:35:58;10.20;;;3.60;;
13228;SDS011;6680;53.220;10.402;2023-04-25T05:38:25;12.70;;;2.80;;
13228;SDS011;6680;53.220;10.402;2023-04-25T05:40:53;12.00;;;3.37;;
13228;SDS011;6680;53.220;10.402;2023-04-25T05:43:20;9.30;;;3.47;;
13228;SDS011;6680;53.220;10.402;2023-04-25T05:45:47;10.17;;;3.67;;
13228;SDS011;6680;53.220;10.402;2023-04-25T05:48:14;5.70;;;2.70;;
13228;SDS011;6680;53.220;10.402;2023-04-25T05:50:40;8.33;;;3.20;;
13228;SDS011;6680;53.220;10.402;2023-04-25T05:53:07;10.90;;;3.27;;
13228;SDS011;6680;53.220;10.402;2023-04-25T05:55:34;8.40;;;2.80;;
13228;SDS011;6680;53.220;10.402;2023-04-25T05:58:02;11.80;;;3.50;;
13228;SDS011;6680;53.220;10.402;2023-04-25T06:00:29;9.70;;;3.07;;
13228;SDS011;6680;53.220;10.402;2023-04-25T06:02:55;9.70;;;3.13;;
13228;SDS011;6680;53.220;10.402;2023-04-25T06:05:22;9.30;;;3.30;;
13228;SDS011;6680;53.220;10.402;2023-04-25T06:07:49;9.63;;;2.80;;
13228;SDS011;6680;53.220;10.402;2023-04-25T06:10:16;9.43;;;3.13;;
13228;SDS011;6680;53.220;10.402;2023-04-25T06:12:43;8.93;;;3.20;;
13228;SDS011;6680;53.220;10.402;2023-04-25T06:15:11;7.63;;;3.30;;
13228;SDS011;6680;53.220;10.402;2023-04-25T06:17:38;8.43;;;2.77;;
13228;SDS011;6680;53.220;10.402;2023-04-25T06:20:05;8.70;;;3.53;;
13228;SDS011;6680;53.220;10.402;2023-04-25T06:22:33;7.40;;;2.43;;
13228;SDS011;6680;53.220;10.402;2023-04-25T06:25:00;12.03;;;3.03;;
13228;SDS011;6680;53.220;10.402;2023-04-25T06:27:29;8.73;;;3.90;;
13228;SDS011;6680;53.220;10.402;2023-04-25T06:29:56;8.00;;;3.17;;
13228;SDS011;6680;53.220;10.402;2023-04-25T06:32:24;3.83;;;2.17;;
13228;SDS011;6680;53.220;10.402;2023-04-25T06:34:52;7.33;;;2.57;;
13228;SDS011;6680;53.220;10.402;2023-04-25T06:37:19;7.50;;;2.80;;
13228;SDS011;6680;53.220;10.402;2023-04-25T06:39:46;9.83;;;3.67;;
13228;SDS011;6680;53.220;10.402;2023-04-25T06:42:12;5.37;;;2.50;;
13228;SDS011;6680;53.220;10.402;2023-04-25T06:44:39;4.70;;;2.03;;
13228;SDS011;6680;53.220;10.402;2023-04-25T06:47:06;18.00;;;3.17;;
13228;SDS011;6680;53.220;10.402;2023-04-25T06:49:34;14.03;;;3.13;;
13228;SDS011;6680;53.220;10.402;2023-04-25T06:52:01;12.47;;;2.97;;
13228;SDS011;6680;53.220;10.402;2023-04-25T06:54:28;6.40;;;2.90;;
13228;SDS011;6680;53.220;10.402;2023-04-25T06:56:55;10.87;;;3.03;;
13228;SDS011;6680;53.220;10.402;2023-04-25T06:59:22;7.30;;;2.70;;
13228;SDS011;6680;53.220;10.402;2023-04-25T07:01:49;9.87;;;3.37;;
13228;SDS011;6680;53.220;10.402;2023-04-25T07:04:16;7.93;;;3.17;;
13228;SDS011;6680;53.220;10.402;2023-04-25T07:06:44;6.73;;;3.13;;
13228;SDS011;6680;53.220;10.402;2023-04-25T07:09:12;13.90;;;2.77;;
13228;SDS011;6680;53.220;10.402;2023-04-25T07:11:39;7.10;;;3.10;;
13228;SDS011;6680;53.220;10.402;2023-04-25T07:14:06;9.50;;;2.57;;
13228;SDS011;6680;53.220;10.402;2023-04-25T07:16:32;6.63;;;2.20;;
13228;SDS011;6680;53.220;10.402;2023-04-25T07:18:59;6.50;;;2.80;;
13228;SDS011;6680;53.220;10.402;2023-04-25T07:21:26;10.20;;;3.17;;
13228;SDS011;6680;53.220;10.402;2023-04-25T07:23:54;9.43;;;2.93;;
13228;SDS011;6680;53.220;10.402;2023-04-25T07:26:20;9.17;;;2.50;;
13228;SDS011;6680;53.220;10.402;2023-04-25T07:28:47;5.60;;;2.57;;
13228;SDS011;6680;53.220;10.402;2023-04-25T07:31:16;10.47;;;3.20;;
13228;SDS011;6680;53.220;10.402;2023-04-25T07:33:43;7.13;;;2.77;;
13228;SDS011;6680;53.220;10.402;2023-04-25T07:36:10;7.77;;;2.73;;
13228;SDS011;6680;53.220;10.402;2023-04-25T07:38:37;8.23;;;2.10;;
13228;SDS011;6680;53.220;10.402;2023-04-25T07:41:05;7.63;;;2.23;;
13228;SDS011;6680;53.220;10.402;2023-04-25T07:43:32;5.03;;;2.07;;
13228;SDS011;6680;53.220;10.402;2023-04-25T07:45:58;8.93;;;2.73;;
13228;SDS011;6680;53.220;10.402;2023-04-25T07:48:25;5.93;;;2.70;;
13228;SDS011;6680;53.220;10.402;2023-04-25T07:50:52;8.83;;;2.67;;
13228;SDS011;6680;53.220;10.402;2023-04-25T07:53:18;8.47;;;2.87;;
13228;SDS011;6680;53.220;10.402;2023-04-25T07:55:46;5.37;;;2.10;;
13228;SDS011;6680;53.220;10.402;2023-04-25T07:58:14;5.60;;;2.73;;
13228;SDS011;6680;53.220;10.402;2023-04-25T08:00:46;6.90;;;2.50;;
13228;SDS011;6680;53.220;10.402;2023-04-25T08:03:12;4.00;;;2.23;;
13228;SDS011;6680;53.220;10.402;2023-04-25T08:05:39;5.03;;;2.47;;
13228;SDS011;6680;53.220;10.402;2023-04-25T08:08:06;5.67;;;2.13;;
13228;SDS011;6680;53.220;10.402;2023-04-25T08:10:32;5.73;;;2.30;;
13228;SDS011;6680;53.220;10.402;2023-04-25T08:12:59;4.30;;;2.20;;
13228;SDS011;6680;53.220;10.402;2023-04-25T08:15:27;5.73;;;2.60;;
13228;SDS011;6680;53.220;10.402;2023-04-25T08:17:54;5.03;;;2.00;;
13228;SDS011;6680;53.220;10.402;2023-04-25T08:20:21;7.00;;;1.90;;
13228;SDS011;6680;53.220;10.402;2023-04-25T08:22:47;5.47;;;2.20;;
13228;SDS011;6680;53.220;10.402;2023-04-25T08:25:14;5.17;;;2.10;;
13228;SDS011;6680;53.220;10.402;2023-04-25T08:27:41;4.30;;;2.40;;
13228;SDS011;6680;53.220;10.402;2023-04-25T08:30:08;3.30;;;2.30;;
13228;SDS011;6680;53.220;10.402;2023-04-25T08:32:36;4.97;;;2.23;;
13228;SDS011;6680;53.220;10.402;2023-04-25T08:35:04;9.57;;;2.40;;
13228;SDS011;6680;53.220;10.402;2023-04-25T08:37:31;5.37;;;2.43;;
13228;SDS011;6680;53.220;10.402;2023-04-25T08:39:58;4.33;;;1.97;;
13228;SDS011;6680;53.220;10.402;2023-04-25T08:42:26;3.43;;;2.07;;
13228;SDS011;6680;53.220;10.402;2023-04-25T08:44:53;4.57;;;2.00;;
13228;SDS011;6680;53.220;10.402;2023-04-25T08:47:21;5.27;;;2.10;;
13228;SDS011;6680;53.220;10.402;2023-04-25T08:49:50;5.97;;;2.07;;
13228;SDS011;6680;53.220;10.402;2023-04-25T08:52:21;4.57;;;1.70;;
13228;SDS011;6680;53.220;10.402;2023-04-25T08:54:48;6.23;;;1.80;;
13228;SDS011;6680;53.220;10.402;2023-04-25T08:57:17;3.83;;;2.27;;
13228;SDS011;6680;53.220;10.402;2023-04-25T08:59:45;6.03;;;2.33;;
13228;SDS011;6680;53.220;10.402;2023-04-25T09:02:13;7.70;;;2.27;;
13228;SDS011;6680;53.220;10.402;2023-04-25T09:04:42;2.77;;;1.80;;
13228;SDS011;6680;53.220;10.402;2023-04-25T09:07:11;5.33;;;2.27;;
13228;SDS011;6680;53.220;10.402;2023-04-25T09:09:40;2.20;;;1.77;;
13228;SDS011;6680;53.220;10.402;2023-04-25T09:12:07;5.67;;;2.33;;
13228;SDS011;6680;53.220;10.402;2023-04-25T09:14:35;2.57;;;1.80;;
13228;SDS011;6680;53.220;10.402;2023-04-25T09:17:02;5.30;;;2.10;;
13228;SDS011;6680;53.220;10.402;2023-04-25T09:19:33;4.13;;;2.43;;
13228;SDS011;6680;53.220;10.402;2023-04-25T09:22:01;6.33;;;2.43;;
13228;SDS011;6680;53.220;10.402;2023-04-25T09:24:31;2.07;;;1.50;;
13228;SDS011;6680;53.220;10.402;2023-04-25T09:26:59;6.57;;;2.00;;
13228;SDS011;6680;53.220;10.402;2023-04-25T09:29:29;11.17;;;2.17;;
13228;SDS011;6680;53.220;10.402;2023-04-25T09:32:16;3.97;;;1.77;;
13228;SDS011;6680;53.220;10.402;2023-04-25T09:34:46;4.63;;;1.50;;
13228;SDS011;6680;53.220;10.402;2023-04-25T09:37:17;2.87;;;1.57;;
13228;SDS011;6680;53.220;10.402;2023-04-25T09:39:46;2.90;;;1.73;;
13228;SDS011;6680;53.220;10.402;2023-04-25T09:42:14;5.93;;;1.80;;
13228;SDS011;6680;53.220;10.402;2023-04-25T09:44:44;3.50;;;1.37;;
13228;SDS011;6680;53.220;10.402;2023-04-25T09:47:12;3.77;;;1.40;;
13228;SDS011;6680;53.220;10.402;2023-04-25T09:49:41;3.27;;;1.90;;
13228;SDS011;6680;53.220;10.402;2023-04-25T09:52:09;1.90;;;1.40;;
13228;SDS011;6680;53.220;10.402;2023-04-25T09:54:39;3.83;;;1.50;;
13228;SDS011;6680;53.220;10.402;2023-04-25T09:57:09;7.47;;;1.70;;
13228;SDS011;6680;53.220;10.402;2023-04-25T09:59:38;4.67;;;1.83;;
13228;SDS011;6680;53.220;10.402;2023-04-25T10:02:06;3.70;;;2.00;;
13228;SDS011;6680;53.220;10.402;2023-04-25T10:04:34;3.10;;;1.77;;
13228;SDS011;6680;53.220;10.402;2023-04-25T10:07:01;3.73;;;2.13;;
13228;SDS011;6680;53.220;10.402;2023-04-25T10:09:31;8.03;;;2.00;;
13228;SDS011;6680;53.220;10.402;2023-04-25T10:11:59;3.77;;;2.10;;
13228;SDS011;6680;53.220;10.402;2023-04-25T10:14:27;6.43;;;1.90;;
13228;SDS011;6680;53.220;10.402;2023-04-25T10:16:57;3.93;;;1.77;;
13228;SDS011;6680;53.220;10.402;2023-04-25T10:19:24;6.50;;;2.00;;
13228;SDS011;6680;53.220;10.402;2023-04-25T10:21:52;8.00;;;2.10;;
13228;SDS011;6680;53.220;10.402;2023-04-25T10:24:21;4.10;;;1.93;;
13228;SDS011;6680;53.220;10.402;2023-04-25T10:26:48;3.90;;;1.70;;
13228;SDS011;6680;53.220;10.402;2023-04-25T10:29:21;1.87;;;1.60;;
13228;SDS011;6680;53.220;10.402;2023-04-25T10:31:50;3.73;;;1.90;;
13228;SDS011;6680;53.220;10.402;2023-04-25T10:34:17;2.80;;;1.60;;
13228;SDS011;6680;53.220;10.402;2023-04-25T10:36:48;4.17;;;1.73;;
13228;SDS011;6680;53.220;10.402;2023-04-25T10:39:21;3.63;;;1.67;;
13228;SDS011;6680;53.220;10.402;2023-04-25T10:41:52;3.37;;;1.60;;
13228;SDS011;6680;53.220;10.402;2023-04-25T10:44:21;2.83;;;1.57;;
13228;SDS011;6680;53.220;10.402;2023-04-25T10:46:48;2.63;;;1.60;;
13228;SDS011;6680;53.220;10.402;2023-04-25T10:52:10;3.63;;;2.17;;
13228;SDS011;6680;53.220;10.402;2023-04-25T10:54:41;4.17;;;1.80;;
13228;SDS011;6680;53.220;10.402;2023-04-25T10:59:57;4.73;;;2.17;;
13228;SDS011;6680;53.220;10.402;2023-04-25T11:02:26;5.03;;;2.47;;
13228;SDS011;6680;53.220;10.402;2023-04-25T11:04:55;2.37;;;2.00;;
13228;SDS011;6680;53.220;10.402;2023-04-25T11:07:23;13.93;;;2.33;;
13228;SDS011;6680;53.220;10.402;2023-04-25T11:09:57;3.13;;;1.40;;
13228;SDS011;6680;53.220;10.402;2023-04-25T11:12:29;3.77;;;1.70;;
13228;SDS011;6680;53.220;10.402;2023-04-25T11:15:00;7.90;;;2.17;;
13228;SDS011;6680;53.220;10.402;2023-04-25T11:17:28;2.47;;;1.90;;
13228;SDS011;6680;53.220;10.402;2023-04-25T11:19:56;1.63;;;1.40;;
13228;SDS011;6680;53.220;10.402;2023-04-25T11:22:23;3.60;;;1.77;;
13228;SDS011;6680;53.220;10.402;2023-04-25T11:24:50;5.60;;;1.97;;
13228;SDS011;6680;53.220;10.402;2023-04-25T11:27:17;3.13;;;1.70;;
13228;SDS011;6680;53.220;10.402;2023-04-25T11:29:44;5.73;;;1.87;;
13228;SDS011;6680;53.220;10.402;2023-04-25T11:32:14;3.03;;;1.70;;
13228;SDS011;6680;53.220;10.402;2023-04-25T11:34:43;8.87;;;1.90;;
13228;SDS011;6680;53.220;10.402;2023-04-25T11:37:12;4.03;;;2.07;;
13228;SDS011;6680;53.220;10.402;2023-04-25T11:39:42;3.77;;;1.97;;
13228;SDS011;6680;53.220;10.402;2023-04-25T11:42:11;3.17;;;1.77;;
13228;SDS011;6680;53.220;10.402;2023-04-25T11:44:37;7.03;;;2.20;;
13228;SDS011;6680;53.220;10.402;2023-04-25T11:47:05;4.47;;;1.83;;
13228;SDS011;6680;53.220;10.402;2023-04-25T11:49:31;1.77;;;1.33;;
13228;SDS011;6680;53.220;10.402;2023-04-25T11:51:58;4.47;;;2.70;;
13228;SDS011;6680;53.220;10.402;2023-04-25T11:54:26;4.87;;;1.60;;
13228;SDS011;6680;53.220;10.402;2023-04-25T11:56:53;2.47;;;1.70;;
13228;SDS011;6680;53.220;10.402;2023-04-25T11:59:22;3.07;;;1.57;;
13228;SDS011;6680;53.220;10.402;2023-04-25T12:01:50;1.60;;;1.50;;
13228;SDS011;6680;53.220;10.402;2023-04-25T12:04:17;3.47;;;2.20;;
13228;SDS011;6680;53.220;10.402;2023-04-25T12:06:45;1.80;;;1.53;;
13228;SDS011;6680;53.220;10.402;2023-04-25T12:09:13;2.87;;;1.80;;
13228;SDS011;6680;53.220;10.402;2023-04-25T12:11:42;4.87;;;1.87;;
13228;SDS011;6680;53.220;10.402;2023-04-25T12:14:09;3.90;;;2.30;;
13228;SDS011;6680;53.220;10.402;2023-04-25T12:16:40;1.67;;;1.57;;
13228;SDS011;6680;53.220;10.402;2023-04-25T12:19:07;4.90;;;1.83;;
13228;SDS011;6680;53.220;10.402;2023-04-25T12:21:34;4.50;;;1.73;;
13228;SDS011;6680;53.220;10.402;2023-04-25T12:24:10;2.63;;;2.10;;
13228;SDS011;6680;53.220;10.402;2023-04-25T12:26:47;4.63;;;1.80;;
13228;SDS011;6680;53.220;10.402;2023-04-25T12:29:15;2.60;;;1.40;;
13228;SDS011;6680;53.220;10.402;2023-04-25T12:31:43;3.17;;;1.77;;
13228;SDS011;6680;53.220;10.402;2023-04-25T12:34:09;1.87;;;1.67;;
13228;SDS011;6680;53.220;10.402;2023-04-25T12:36:37;6.83;;;2.20;;
13228;SDS011;6680;53.220;10.402;2023-04-25T12:39:03;3.83;;;1.90;;
13228;SDS011;6680;53.220;10.402;2023-04-25T12:41:31;2.57;;;1.80;;
13228;SDS011;6680;53.220;10.402;2023-04-25T12:43:59;3.17;;;1.80;;
13228;SDS011;6680;53.220;10.402;2023-04-25T12:46:26;3.13;;;2.17;;
13228;SDS011;6680;53.220;10.402;2023-04-25T12:48:53;4.30;;;1.77;;
13228;SDS011;6680;53.220;10.402;2023-04-25T12:51:20;4.00;;;1.53;;
13228;SDS011;6680;53.220;10.402;2023-04-25T12:53:49;3.30;;;1.57;;
13228;SDS011;6680;53.220;10.402;2023-04-25T12:56:16;2.40;;;1.77;;
13228;SDS011;6680;53.220;10.402;2023-04-25T12:58:43;1.60;;;1.50;;
13228;SDS011;6680;53.220;10.402;2023-04-25T13:01:11;2.00;;;1.43;;
13228;SDS011;6680;53.220;10.402;2023-04-25T13:03:38;5.67;;;1.47;;
13228;SDS011;6680;53.220;10.402;2023-04-25T13:06:05;4.83;;;1.33;;
13228;SDS011;6680;53.220;10.402;2023-04-25T13:08:32;2.60;;;1.50;;
13228;SDS011;6680;53.220;10.402;2023-04-25T13:10:59;5.87;;;2.07;;
13228;SDS011;6680;53.220;10.402;2023-04-25T13:13:26;1.90;;;1.50;;
13228;SDS011;6680;53.220;10.402;2023-04-25T13:15:53;2.40;;;1.50;;
13228;SDS011;6680;53.220;10.402;2023-04-25T13:18:21;4.63;;;1.60;;
13228;SDS011;6680;53.220;10.402;2023-04-25T13:20:51;4.57;;;1.70;;
13228;SDS011;6680;53.220;10.402;2023-04-25T13:23:18;3.37;;;1.60;;
13228;SDS011;6680;53.220;10.402;2023-04-25T13:25:45;3.10;;;1.60;;
13228;SDS011;6680;53.220;10.402;2023-04-25T13:28:11;2.30;;;1.77;;
13228;SDS011;6680;53.220;10.402;2023-04-25T13:30:38;2.00;;;1.40;;
13228;SDS011;6680;53.220;10.402;2023-04-25T13:33:05;3.30;;;1.57;;
13228;SDS011;6680;53.220;10.402;2023-04-25T13:35:34;2.20;;;1.47;;
13228;SDS011;6680;53.220;10.402;2023-04-25T13:38:01;1.60;;;1.50;;
13228;SDS011;6680;53.220;10.402;2023-04-25T13:40:28;2.80;;;1.40;;
13228;SDS011;6680;53.220;10.402;2023-04-25T13:42:55;4.60;;;1.80;;
13228;SDS011;6680;53.220;10.402;2023-04-25T13:45:22;1.53;;;1.43;;
13228;SDS011;6680;53.220;10.402;2023-04-25T13:47:48;2.20;;;1.67;;
13228;SDS011;6680;53.220;10.402;2023-04-25T13:50:15;1.80;;;1.47;;
13228;SDS011;6680;53.220;10.402;2023-04-25T13:52:44;3.67;;;1.73;;
13228;SDS011;6680;53.220;10.402;2023-04-25T13:55:11;2.40;;;1.37;;
13228;SDS011;6680;53.220;10.402;2023-04-25T13:57:38;1.70;;;1.60;;
13228;SDS011;6680;53.220;10.402;2023-04-25T14:00:05;3.90;;;1.60;;
13228;SDS011;6680;53.220;10.402;2023-04-25T14:02:34;4.90;;;1.90;;
13228;SDS011;6680;53.220;10.402;2023-04-25T14:05:01;1.40;;;1.30;;
13228;SDS011;6680;53.220;10.402;2023-04-25T14:07:29;3.60;;;1.87;;
13228;SDS011;6680;53.220;10.402;2023-04-25T14:09:57;1.67;;;1.57;;
13228;SDS011;6680;53.220;10.402;2023-04-25T14:12:24;2.37;;;1.73;;
13228;SDS011;6680;53.220;10.402;2023-04-25T14:14:51;1.93;;;1.77;;
13228;SDS011;6680;53.220;10.402;2023-04-25T14:17:18;2.13;;;1.33;;
13228;SDS011;6680;53.220;10.402;2023-04-25T14:19:45;4.70;;;1.90;;
13228;SDS011;6680;53.220;10.402;2023-04-25T14:22:13;4.10;;;1.60;;
13228;SDS011;6680;53.220;10.402;2023-04-25T14:24:40;3.43;;;1.63;;
13228;SDS011;6680;53.220;10.402;2023-04-25T14:27:08;8.30;;;2.10;;
13228;SDS011;6680;53.220;10.402;2023-04-25T14:29:35;2.80;;;1.50;;
13228;SDS011;6680;53.220;10.402;2023-04-25T14:32:02;2.17;;;1.20;;
13228;SDS011;6680;53.220;10.402;2023-04-25T14:34:30;1.77;;;1.60;;
13228;SDS011;6680;53.220;10.402;2023-04-25T14:36:56;5.00;;;1.73;;
13228;SDS011;6680;53.220;10.402;2023-04-25T14:39:23;4.77;;;1.40;;
13228;SDS011;6680;53.220;10.402;2023-04-25T14:41:50;2.90;;;1.90;;
13228;SDS011;6680;53.220;10.402;2023-04-25T14:44:18;3.23;;;1.77;;
13228;SDS011;6680;53.220;10.402;2023-04-25T14:46:45;2.10;;;1.90;;
13228;SDS011;6680;53.220;10.402;2023-04-25T14:49:11;4.87;;;2.00;;
13228;SDS011;6680;53.220;10.402;2023-04-25T14:51:38;8.33;;;1.47;;
13228;SDS011;6680;53.220;10.402;2023-04-25T14:54:05;1.97;;;1.47;;